Terminal Aerodrome Forecast
Issued by NWS Topeka, KS

Home | Current Version | Previous Version | Text Only | Print | Product List | Glossary On
Versions: 1 2 3 4 5 6 7 8 9 10 11 12 13 14 15 16 17 18 19 20 21 22 23 24 25 26 27
217
FTUS43 KTOP 191741
TAFTOP
TAF
KTOP 191741Z 1918/2018 16012KT P6SM FEW100
     FM192000 16016G28KT P6SM SKC
     FM200300 16015KT P6SM FEW250 WS018/18045KT
     FM201100 21010KT P6SM FEW250
     FM201600 27008KT P6SM FEW200=

USA.gov is the U.S. government's official web portal to all federal, state and local government web resources and services.